Time;durP1;ratioP1;P1;durP2;ratioP2;P2;SDS_P1;SDS_P2;PMS_P1;PMS_P2;Temp;Humidity;BMP_temperature;BMP_pressure;BME280_temperature;BME280_humidity;BME280_pressure;Samples;Min_cycle;Max_cycle;Signal;HPM_P1;HPM_P2
2023/03/28 00:02:04;;;;;;;4.57;2.00;;;;;;;-0.68;100.00;98078.69;5086546;28;20044;-58
2023/03/28 00:04:31;;;;;;;4.38;2.10;;;;;;;-0.78;100.00;98085.97;5062261;28;20105;-58
2023/03/28 00:06:58;;;;;;;7.53;3.08;;;;;;;-0.99;100.00;98089.88;5084330;28;20127;-58
2023/03/28 00:09:24;;;;;;;7.97;2.60;;;;;;;-1.16;100.00;98091.63;5086166;28;20044;-57
2023/03/28 00:11:51;;;;;;;6.05;2.80;;;;;;;-1.12;100.00;98098.28;5086879;28;20068;-57
2023/03/28 00:14:17;;;;;;;6.82;2.75;;;;;;;-1.08;100.00;98093.47;5082588;28;20047;-57
2023/03/28 00:16:46;;;;;;;5.18;2.40;;;;;;;-1.17;100.00;98089.97;5081847;28;20031;-58
2023/03/28 00:19:17;;;;;;;7.43;2.53;;;;;;;-1.22;100.00;98094.94;5081486;28;20135;-58
2023/03/28 00:21:47;;;;;;;12.67;3.17;;;;;;;-1.12;100.00;98100.94;5086862;28;20499;-57
2023/03/28 00:24:16;;;;;;;3.78;2.28;;;;;;;-1.10;100.00;98095.47;5085126;28;20093;-58
2023/03/28 00:26:44;;;;;;;5.65;2.78;;;;;;;-1.08;100.00;98101.47;5085656;28;20044;-57
2023/03/28 00:29:15;;;;;;;4.93;2.45;;;;;;;-1.18;100.00;98106.91;5079259;28;20044;-59
2023/03/28 00:31:41;;;;;;;8.63;2.55;;;;;;;-1.24;100.00;98105.72;5076545;28;20078;-58
2023/03/28 00:34:08;;;;;;;5.00;2.30;;;;;;;-1.22;100.00;98103.72;5084207;28;20131;-58
2023/03/28 00:36:37;;;;;;;6.07;2.63;;;;;;;-1.19;100.00;98105.22;5082454;28;20033;-56
2023/03/28 00:39:05;;;;;;;5.28;2.60;;;;;;;-1.22;100.00;98110.88;5084253;28;20036;-58
2023/03/28 00:41:38;;;;;;;7.43;2.78;;;;;;;-1.13;100.00;98114.41;5061124;28;20070;-58
2023/03/28 00:44:42;;;;;;;7.82;2.92;;;;;;;-1.12;100.00;98114.25;5083950;28;20060;-59
2023/03/28 00:47:27;;;;;;;7.25;2.63;;;;;;;-0.98;100.00;98118.13;5084029;28;20036;-57
2023/03/28 00:50:02;;;;;;;6.38;2.60;;;;;;;-1.12;100.00;98116.91;5079290;28;20036;-59
2023/03/28 00:52:37;;;;;;;6.20;2.53;;;;;;;-1.07;100.00;98124.41;5065544;28;20041;-58
2023/03/28 00:55:09;;;;;;;10.48;3.60;;;;;;;-1.03;100.00;98123.09;5085370;28;20035;-56
2023/03/28 00:57:37;;;;;;;5.45;2.72;;;;;;;-1.05;100.00;98115.28;5079071;28;20040;-57
2023/03/28 01:00:11;;;;;;;5.50;2.35;;;;;;;-0.95;100.00;98109.00;5085475;28;20586;-59
2023/03/28 01:02:49;;;;;;;5.03;2.53;;;;;;;-0.88;100.00;98109.19;5062393;28;20048;-59
2023/03/28 01:05:21;;;;;;;5.07;2.15;;;;;;;-0.90;100.00;98124.47;5063902;28;20540;-59
2023/03/28 01:07:51;;;;;;;4.50;2.47;;;;;;;-1.03;100.00;98128.41;5080089;28;20051;-57
2023/03/28 01:10:21;;;;;;;3.78;2.20;;;;;;;-1.07;100.00;98127.06;5066219;28;20040;-59
2023/03/28 01:12:50;;;;;;;5.55;2.53;;;;;;;-1.23;100.00;98133.94;5085494;28;20043;-57
2023/03/28 01:15:18;;;;;;;4.37;2.63;;;;;;;-1.20;100.00;98122.16;5065649;28;20036;-58
2023/03/28 01:17:53;;;;;;;7.90;2.55;;;;;;;-1.12;100.00;98116.91;5064239;28;20558;-58
2023/03/28 01:20:45;;;;;;;4.70;2.40;;;;;;;-1.07;100.00;98124.41;5078994;28;20044;-59
2023/03/28 01:23:31;;;;;;;8.00;2.65;;;;;;;-0.99;100.00;98131.59;5084605;28;20093;-58
2023/03/28 01:26:32;;;;;;;4.28;2.15;;;;;;;-0.86;100.00;98123.16;5067447;28;20129;-58
2023/03/28 01:29:10;;;;;;;4.60;2.30;;;;;;;-0.96;100.00;98132.09;5059763;28;20384;-57
2023/03/28 01:31:58;;;;;;;5.90;2.67;;;;;;;-0.98;100.00;98125.28;5067451;28;20056;-56
2023/03/28 01:35:00;;;;;;;6.60;2.33;;;;;;;-0.81;100.00;98131.50;5060889;28;20147;-58
2023/03/28 01:37:38;;;;;;;5.35;2.28;;;;;;;-0.77;100.00;98135.50;5076042;28;20486;-58
2023/03/28 01:40:47;;;;;;;4.25;2.22;;;;;;;-0.76;100.00;98137.16;5065106;28;20146;-60
2023/03/28 01:43:26;;;;;;;4.43;1.75;;;;;;;-0.80;100.00;98133.97;5063267;28;20052;-59
2023/03/28 01:46:16;;;;;;;8.25;2.25;;;;;;;-0.90;100.00;98135.09;5061212;28;20060;-59
2023/03/28 01:48:42;;;;;;;5.20;1.90;;;;;;;-0.92;100.00;98145.91;5066297;28;20527;-59
2023/03/28 01:51:50;;;;;;;5.55;2.35;;;;;;;-0.93;100.00;98141.56;5066070;28;20075;-59
2023/03/28 01:55:02;;;;;;;3.70;2.17;;;;;;;-0.83;100.00;98138.78;5059464;28;20044;-58
2023/03/28 01:57:33;;;;;;;3.72;2.00;;;;;;;-0.76;100.00;98141.66;5053235;28;20044;-60
2023/03/28 02:00:18;;;;;;;3.85;2.08;;;;;;;-0.94;100.00;98140.75;5065430;28;20056;-56
2023/03/28 02:03:41;;;;;;;;;;;;;;;-0.90;100.00;98141.25;5083002;28;20581;-58
2023/03/28 02:06:20;;;;;;;5.07;2.08;;;;;;;-0.90;100.00;98143.91;5002965;28;20107;-58
2023/03/28 02:08:49;;;;;;;6.45;2.53;;;;;;;-0.96;100.00;98136.59;5021626;28;20120;-58
2023/03/28 02:11:20;;;;;;;4.18;2.05;;;;;;;-0.98;100.00;98138.56;5041187;28;20055;-59
2023/03/28 02:14:19;;;;;;;4.10;2.30;;;;;;;-1.11;100.00;98133.69;5080362;28;20085;-58
2023/03/28 02:16:56;;;;;;;3.45;1.83;;;;;;;-1.16;100.00;98135.97;5063185;28;20051;-59
2023/03/28 02:20:07;;;;;;;3.97;1.98;;;;;;;-1.18;100.00;98133.50;5015422;28;20137;-59
2023/03/28 02:22:59;;;;;;;5.40;2.38;;;;;;;-1.01;100.00;98142.38;5079533;28;20434;-59
2023/03/28 02:25:49;;;;;;;4.70;2.00;;;;;;;-1.02;100.00;98138.06;5072111;28;20052;-59
2023/03/28 02:28:44;;;;;;;5.63;2.15;;;;;;;-1.14;100.00;98137.47;5040912;28;20047;-57
2023/03/28 02:31:24;;;;;;;6.35;2.45;;;;;;;-1.28;100.00;98140.72;5080550;28;20114;-58
2023/03/28 02:33:52;;;;;;;4.53;2.03;;;;;;;-1.31;100.00;98133.91;5084265;28;20109;-58
2023/03/28 02:36:34;;;;;;;4.43;1.80;;;;;;;-1.25;100.00;98133.25;5080073;28;20040;-57
2023/03/28 02:39:09;;;;;;;5.10;2.10;;;;;;;-1.21;100.00;98134.63;5082202;28;20038;-59
2023/03/28 02:42:09;;;;;;;3.92;2.00;;;;;;;-1.07;100.00;98137.69;5081026;28;20047;-58
2023/03/28 02:44:44;;;;;;;5.07;2.28;;;;;;;-1.20;100.00;98136.31;5061067;28;20028;-56
2023/03/28 02:47:24;;;;;;;5.65;2.38;;;;;;;-1.12;100.00;98139.97;5063022;28;20074;-58
2023/03/28 02:50:12;;;;;;;3.95;1.95;;;;;;;-1.08;100.00;98138.66;5063490;28;20526;-60
2023/03/28 02:52:51;;;;;;;6.68;2.03;;;;;;;-1.25;100.00;98140.41;5056667;28;20047;-59
2023/03/28 02:55:32;;;;;;;7.18;2.10;;;;;;;-1.51;100.00;98146.56;5081919;28;20042;-56
2023/03/28 02:58:16;;;;;;;4.80;2.08;;;;;;;-1.92;100.00;98142.56;5061093;28;20043;-59
2023/03/28 03:00:43;;;;;;;5.88;2.55;;;;;;;-2.10;100.00;98137.31;5081703;28;20048;-59
2023/03/28 03:03:10;;;;;;;5.82;2.13;;;;;;;-2.09;100.00;98138.97;5065044;28;20443;-59
2023/03/28 03:05:37;;;;;;;6.97;2.20;;;;;;;-2.20;100.00;98149.78;5063632;28;20039;-58
2023/03/28 03:08:03;;;;;;;5.20;2.30;;;;;;;-2.16;100.00;98148.50;5082782;28;20628;-58
2023/03/28 03:10:33;;;;;;;6.68;2.45;;;;;;;-2.17;100.00;98150.34;5064316;28;20063;-59
2023/03/28 03:12:59;;;;;;;5.65;2.85;;;;;;;-2.19;100.00;98141.69;5082420;28;20040;-59
2023/03/28 03:15:29;;;;;;;5.30;2.38;;;;;;;-2.30;100.00;98147.19;5062763;28;20037;-57
2023/03/28 03:17:58;;;;;;;6.72;2.55;;;;;;;-2.36;100.00;98143.34;5061404;28;20040;-56
2023/03/28 03:20:33;;;;;;;5.55;2.38;;;;;;;-2.36;100.00;98146.81;5082056;28;20036;-59
2023/03/28 03:23:02;;;;;;;6.90;2.83;;;;;;;-2.45;100.00;98139.75;5083097;28;20042;-58
2023/03/28 03:25:31;;;;;;;5.20;2.50;;;;;;;-2.56;100.00;98135.50;5080462;28;20028;-59
2023/03/28 03:28:20;;;;;;;5.22;2.40;;;;;;;-2.53;100.00;98137.88;5061434;28;20123;-59
2023/03/28 03:30:51;;;;;;;5.10;2.20;;;;;;;-2.44;100.00;98143.25;5083295;28;20047;-59
2023/03/28 03:33:49;;;;;;;6.05;2.80;;;;;;;-2.51;100.00;98135.06;5057401;28;20059;-59
2023/03/28 03:36:19;;;;;;;4.95;2.55;;;;;;;-2.43;100.00;98136.97;5062020;28;20491;-59
2023/03/28 03:38:46;;;;;;;5.07;2.58;;;;;;;-2.44;100.00;98140.59;5065153;28;20032;-58
2023/03/28 03:41:18;;;;;;;5.07;2.33;;;;;;;-2.39;100.00;98144.47;5063465;28;20040;-59
2023/03/28 03:43:45;;;;;;;5.38;2.63;;;;;;;-2.51;100.00;98141.19;5053309;28;20557;-59
2023/03/28 03:46:12;;;;;;;8.02;2.53;;;;;;;-2.54;100.00;98141.47;5061525;28;20036;-59
2023/03/28 03:48:39;;;;;;;6.05;2.40;;;;;;;-2.54;100.00;98138.81;5058508;28;20040;-60
2023/03/28 03:51:16;;;;;;;6.07;2.33;;;;;;;-2.59;100.00;98138.44;5060108;28;20060;-58
2023/03/28 03:53:43;;;;;;;7.05;2.78;;;;;;;-2.37;100.00;98141.66;5082944;28;20157;-58
2023/03/28 03:56:13;;;;;;;7.18;3.03;;;;;;;-2.42;100.00;98146.59;5063551;28;20105;-58
2023/03/28 03:58:55;;;;;;;5.00;2.80;;;;;;;-2.92;100.00;98133.59;5056989;28;20049;-59
2023/03/28 04:01:28;;;;;;;5.80;2.33;;;;;;;-3.01;100.00;98142.44;5062469;28;20579;-59
2023/03/28 04:04:02;;;;;;;4.82;2.75;;;;;;;-3.05;100.00;98146.34;5064705;28;20085;-57
2023/03/28 04:06:40;;;;;;;8.25;3.15;;;;;;;-3.09;100.00;98144.97;5064397;28;20047;-59
2023/03/28 04:09:08;;;;;;;7.13;3.45;;;;;;;-3.25;100.00;98143.75;5058459;28;20159;-58
2023/03/28 04:11:55;;;;;;;7.22;2.95;;;;;;;-3.02;100.00;98146.88;5061409;28;20044;-59
2023/03/28 04:14:22;;;;;;;7.43;3.10;;;;;;;-3.25;100.00;98148.25;5061859;28;20461;-59
2023/03/28 04:16:52;;;;;;;8.00;3.33;;;;;;;-3.14;100.00;98148.03;5065678;28;20036;-59
2023/03/28 04:19:19;;;;;;;5.93;3.00;;;;;;;-3.07;100.00;98146.50;5084563;28;20028;-59
2023/03/28 04:21:47;;;;;;;7.85;3.65;;;;;;;-2.82;100.00;98154.75;5066801;28;20135;-58
2023/03/28 04:24:15;;;;;;;6.90;2.95;;;;;;;-2.71;100.00;98153.72;5084967;28;20040;-59
2023/03/28 04:26:48;;;;;;;5.38;2.97;;;;;;;-2.63;100.00;98150.31;5062074;28;20063;-58
2023/03/28 04:29:17;;;;;;;;;;;;;;;-2.68;100.00;98160.56;5068615;28;20119;-59
2023/03/28 04:32:05;;;;;;;6.20;2.63;;;;;;;-2.55;100.00;98153.06;5086076;28;19927;-58
2023/03/28 04:34:50;;;;;;;5.72;2.78;;;;;;;-2.61;100.00;98164.28;5085730;28;20050;-60
2023/03/28 04:37:18;;;;;;;9.05;3.20;;;;;;;-2.75;100.00;98171.75;5066753;28;20534;-59
2023/03/28 04:39:54;;;;;;;4.97;2.72;;;;;;;-2.65;100.00;98170.88;5068367;28;20074;-58
2023/03/28 04:42:59;;;;;;;6.22;3.08;;;;;;;-2.67;100.00;98172.81;5060270;28;20055;-57
2023/03/28 04:45:34;;;;;;;9.43;3.30;;;;;;;-2.72;100.00;98181.22;5067247;28;20411;-58
2023/03/28 04:48:11;;;;;;;4.10;2.45;;;;;;;-2.93;100.00;98174.34;5062090;28;20495;-58
2023/03/28 04:50:38;;;;;;;7.13;2.92;;;;;;;-3.02;100.00;98173.38;5067599;28;20040;-57
2023/03/28 04:53:05;;;;;;;7.15;3.70;;;;;;;-3.05;100.00;98172.84;5065398;28;20040;-58
2023/03/28 04:55:31;;;;;;;7.35;3.53;;;;;;;-3.16;100.00;98179.97;5064041;28;20040;-58
2023/03/28 04:58:03;;;;;;;6.95;3.95;;;;;;;-3.09;100.00;98182.06;5065619;28;20039;-59
2023/03/28 05:00:30;;;;;;;6.55;3.30;;;;;;;-3.08;100.00;98178.44;5064669;28;20051;-57
2023/03/28 05:03:03;;;;;;;9.93;3.33;;;;;;;-3.18;100.00;98178.44;5083429;28;20063;-58
2023/03/28 05:05:41;;;;;;;5.50;3.00;;;;;;;-3.13;100.00;98184.19;5061656;28;20043;-58
2023/03/28 05:08:13;;;;;;;8.40;2.95;;;;;;;-3.29;100.00;98177.66;5063839;28;20048;-57
2023/03/28 05:10:40;;;;;;;7.90;3.30;;;;;;;-3.38;100.00;98186.47;5075582;28;20074;-59
2023/03/28 05:13:09;;;;;;;6.45;3.70;;;;;;;-3.41;100.00;98182.28;5073420;28;20131;-56
2023/03/28 05:15:45;;;;;;;10.13;3.50;;;;;;;-3.35;100.00;98186.19;5063136;28;20055;-59
2023/03/28 05:18:41;;;;;;;8.68;3.67;;;;;;;-3.27;100.00;98186.28;5062769;28;20052;-59
2023/03/28 05:21:08;;;;;;;9.13;4.47;;;;;;;-2.85;100.00;98194.81;5067029;28;20645;-59
2023/03/28 05:23:34;;;;;;;9.23;4.28;;;;;;;-3.07;100.00;98186.22;5082824;28;20035;-59
2023/03/28 05:26:06;;;;;;;10.98;4.30;;;;;;;-3.17;100.00;98198.69;5063078;28;20032;-59
2023/03/28 05:28:34;;;;;;;13.27;4.80;;;;;;;-3.20;100.00;98199.81;5062719;28;20074;-60
2023/03/28 05:31:01;;;;;;;9.30;4.18;;;;;;;-2.81;100.00;98206.78;5062400;28;20572;-58
2023/03/28 05:33:31;;;;;;;7.93;4.47;;;;;;;-2.76;100.00;98211.66;5048593;28;20091;-59
2023/03/28 05:35:59;;;;;;;8.02;3.97;;;;;;;-2.66;100.00;98220.41;5063669;28;20107;-59
2023/03/28 05:38:32;;;;;;;12.13;4.00;;;;;;;-2.56;100.00;98216.88;5062381;28;20091;-58
2023/03/28 05:41:03;;;;;;;11.27;4.90;;;;;;;-2.60;100.00;98218.97;5064163;28;20036;-58
2023/03/28 05:43:30;;;;;;;8.65;4.18;;;;;;;-2.72;100.00;98218.34;5059214;28;20108;-59
2023/03/28 05:45:57;;;;;;;8.48;4.57;;;;;;;-2.72;100.00;98226.28;5082363;28;20048;-59
2023/03/28 05:48:31;;;;;;;8.93;3.47;;;;;;;-2.69;100.00;98225.16;5061707;28;20043;-59
2023/03/28 05:50:58;;;;;;;7.20;3.55;;;;;;;-2.77;100.00;98224.06;5081909;28;20036;-59
2023/03/28 05:53:25;;;;;;;10.30;3.75;;;;;;;-2.86;100.00;98227.59;5081006;28;20051;-57
2023/03/28 05:55:51;;;;;;;11.15;4.10;;;;;;;-2.90;100.00;98234.16;5079545;28;20044;-59
2023/03/28 05:58:18;;;;;;;10.27;4.63;;;;;;;-2.85;100.00;98234.56;5062456;28;20044;-59
2023/03/28 06:00:45;;;;;;;10.65;4.28;;;;;;;-2.75;100.00;98237.19;5082617;28;20054;-58
2023/03/28 06:03:14;;;;;;;10.20;4.70;;;;;;;-2.74;100.00;98233.53;5063954;28;20112;-57
2023/03/28 06:05:43;;;;;;;10.98;5.28;;;;;;;-2.68;100.00;98238.28;5046956;28;20586;-59
2023/03/28 06:08:21;;;;;;;15.05;4.75;;;;;;;-2.65;100.00;98235.31;5058423;28;20045;-59
2023/03/28 06:10:47;;;;;;;8.15;4.65;;;;;;;-2.61;100.00;98241.19;5065170;28;20473;-59
2023/03/28 06:13:25;;;;;;;11.57;5.50;;;;;;;-2.45;100.00;98242.34;5062768;28;20632;-59
2023/03/28 06:15:52;;;;;;;8.52;4.65;;;;;;;-2.38;100.00;98240.78;5066240;28;20101;-59
2023/03/28 06:18:27;;;;;;;11.82;4.82;;;;;;;-2.30;100.00;98248.84;5057515;28;20056;-59
2023/03/28 06:20:53;;;;;;;6.65;4.07;;;;;;;-2.29;100.00;98253.16;5061525;28;20040;-59
2023/03/28 06:23:21;;;;;;;7.13;4.30;;;;;;;-2.20;100.00;98258.56;5061220;28;20044;-59
2023/03/28 06:25:49;;;;;;;7.88;4.13;;;;;;;-2.20;100.00;98256.75;5062881;28;20036;-58
2023/03/28 06:28:17;;;;;;;8.80;4.90;;;;;;;-2.12;100.00;98256.84;5060784;28;20085;-58
2023/03/28 06:31:11;;;;;;;9.90;4.53;;;;;;;-1.98;100.00;98262.66;5075318;28;20058;-58
2023/03/28 06:33:40;;;;;;;9.73;4.70;;;;;;;-1.81;100.00;98258.31;5059098;28;20054;-58
2023/03/28 06:36:10;;;;;;;9.75;3.72;;;;;;;-1.67;100.00;98264.94;5052679;28;20123;-56
2023/03/28 06:38:36;;;;;;;5.53;3.47;;;;;;;-1.53;100.00;98266.25;5081013;28;20044;-58
2023/03/28 06:41:05;;;;;;;8.77;4.10;;;;;;;-1.41;100.00;98268.69;5063458;28;20776;-59
2023/03/28 06:43:33;;;;;;;11.02;3.67;;;;;;;-1.28;100.00;98265.63;5064433;28;20070;-57
2023/03/28 06:46:08;;;;;;;8.90;3.70;;;;;;;-1.12;100.00;98260.44;5063052;28;20044;-58
2023/03/28 06:48:40;;;;;;;11.38;3.72;;;;;;;-0.98;100.00;98256.38;5064409;28;20098;-57
2023/03/28 06:51:22;;;;;;;8.63;3.45;;;;;;;-0.81;100.00;98253.84;5083351;28;20568;-57
2023/03/28 06:53:49;;;;;;;7.20;3.53;;;;;;;-0.73;100.00;98264.53;5065758;28;20036;-57
2023/03/28 06:56:20;;;;;;;6.78;3.08;;;;;;;-0.61;100.00;98256.25;5064012;28;20743;-57
2023/03/28 06:58:47;;;;;;;4.80;2.83;;;;;;;-0.52;100.00;98255.28;5056485;28;20041;-58
2023/03/28 07:01:16;;;;;;;9.52;3.58;;;;;;;-0.48;100.00;98253.97;5064173;28;20272;-58
2023/03/28 07:03:50;;;;;;;6.47;3.03;;;;;;;-0.37;100.00;98258.19;5048434;28;20040;-56
2023/03/28 07:06:21;;;;;;;5.80;3.17;;;;;;;-0.25;100.00;98256.09;5062352;28;20051;-59
2023/03/28 07:08:48;;;;;;;7.78;3.38;;;;;;;-0.21;100.00;98256.59;5057119;28;20089;-52
2023/03/28 07:11:17;;;;;;;14.48;3.63;;;;;;;-0.11;100.00;98253.81;5059671;28;20129;-51
2023/03/28 07:13:47;;;;;;;10.93;3.20;;;;;;;-0.04;100.00;98260.16;5058076;28;20056;-51
2023/03/28 07:16:15;;;;;;;10.80;3.30;;;;;;;0.11;100.00;98263.03;5054886;28;20040;-52
2023/03/28 07:18:42;;;;;;;9.85;3.50;;;;;;;0.21;100.00;98257.56;5077067;28;20060;-56
2023/03/28 07:21:15;;;;;;;7.82;3.45;;;;;;;0.35;99.84;98261.41;5058989;28;20046;-53
2023/03/28 07:23:43;;;;;;;9.50;3.00;;;;;;;0.45;99.02;98253.28;5060407;28;20044;-53
2023/03/28 07:26:12;;;;;;;7.57;2.60;;;;;;;0.51;96.89;98263.25;5057634;28;20044;-53
2023/03/28 07:28:40;;;;;;;4.47;2.40;;;;;;;0.66;95.87;98262.63;5060281;28;20044;-51
2023/03/28 07:31:06;;;;;;;4.68;2.30;;;;;;;0.67;93.44;98267.78;5061795;28;20035;-50
2023/03/28 07:33:35;;;;;;;6.30;2.08;;;;;;;0.80;92.43;98269.94;5061306;28;20082;-49
2023/03/28 07:36:11;;;;;;;6.80;2.13;;;;;;;0.99;91.22;98278.63;5080540;28;20056;-52
2023/03/28 07:38:38;;;;;;;8.00;2.42;;;;;;;1.26;90.81;98273.91;5062782;28;20044;-53
2023/03/28 07:41:06;;;;;;;5.82;1.88;;;;;;;1.37;86.61;98281.53;5063085;28;20040;-53
2023/03/28 07:43:33;;;;;;;6.35;2.30;;;;;;;1.51;86.01;98282.69;5057971;28;20052;-62
2023/03/28 07:46:06;;;;;;;5.18;1.85;;;;;;;1.36;83.95;98281.75;5060556;28;20042;-58
2023/03/28 07:48:35;;;;;;;8.02;2.05;;;;;;;1.38;85.78;98285.91;5078412;28;20048;-59
2023/03/28 07:51:05;;;;;;;7.53;2.25;;;;;;;1.41;86.11;98287.38;5064228;28;20093;-59
2023/03/28 07:53:33;;;;;;;5.85;1.75;;;;;;;1.41;82.65;98292.72;5060153;28;20286;-60
2023/03/28 07:56:00;;;;;;;6.88;1.88;;;;;;;1.38;82.27;98283.22;5063844;28;20087;-59
2023/03/28 07:58:44;;;;;;;6.15;1.70;;;;;;;1.38;81.25;98291.25;5060768;28;20524;-61
2023/03/28 08:01:12;;;;;;;8.30;1.63;;;;;;;1.45;82.78;98299.41;5048234;28;20048;-57
2023/03/28 08:03:48;;;;;;;5.50;1.60;;;;;;;1.57;83.06;98305.19;5061109;28;20048;-59
2023/03/28 08:06:14;;;;;;;6.47;2.30;;;;;;;1.64;82.27;98297.34;5081895;28;20069;-58
2023/03/28 08:08:59;;;;;;;5.05;2.08;;;;;;;1.71;81.66;98301.00;5057735;28;20050;-56
2023/03/28 08:11:32;;;;;;;5.65;2.10;;;;;;;1.96;83.31;98300.91;5061583;28;20047;-59
2023/03/28 08:13:58;;;;;;;7.00;1.80;;;;;;;2.03;82.26;98298.38;5070161;28;20036;-58
2023/03/28 08:16:27;;;;;;;4.63;1.92;;;;;;;2.13;82.33;98300.84;5046141;28;20043;-59
2023/03/28 08:18:55;;;;;;;5.35;1.75;;;;;;;2.30;77.96;98304.25;5046905;28;20044;-60
2023/03/28 08:21:39;;;;;;;7.35;1.85;;;;;;;2.38;79.86;98309.56;5050322;28;20044;-58
2023/03/28 08:24:06;;;;;;;6.95;2.15;;;;;;;2.43;79.57;98309.84;5065008;28;20036;-57
2023/03/28 08:26:37;;;;;;;7.22;2.05;;;;;;;2.61;78.12;98306.06;5064545;28;20032;-58
2023/03/28 08:29:04;;;;;;;7.00;2.35;;;;;;;2.53;76.04;98308.78;5076686;28;20049;-58
2023/03/28 08:31:31;;;;;;;7.38;1.85;;;;;;;2.58;74.14;98301.91;5063537;28;20048;-59
2023/03/28 08:34:06;;;;;;;8.10;1.70;;;;;;;2.82;75.31;98299.22;5065009;28;20143;-59
2023/03/28 08:36:37;;;;;;;10.10;2.22;;;;;;;2.78;76.78;98305.94;5064934;28;20050;-59
2023/03/28 08:39:06;;;;;;;8.07;1.67;;;;;;;2.84;74.52;98294.56;5049227;28;20067;-58
2023/03/28 08:41:48;;;;;;;6.00;2.03;;;;;;;2.68;73.61;98299.00;5083783;28;20251;-59
2023/03/28 08:44:40;;;;;;;6.30;1.85;;;;;;;2.80;74.24;98296.72;5064578;28;20059;-59
2023/03/28 08:47:17;;;;;;;6.38;2.50;;;;;;;2.93;74.46;98296.16;5080521;28;20044;-58
2023/03/28 08:49:48;;;;;;;7.35;1.83;;;;;;;3.17;71.95;98304.16;5084379;28;20122;-59
2023/03/28 08:52:18;;;;;;;5.65;2.25;;;;;;;3.23;71.16;98300.72;5076056;28;20043;-58
2023/03/28 08:55:05;;;;;;;5.75;1.88;;;;;;;3.46;71.82;98307.91;5063774;28;20123;-59
2023/03/28 08:57:34;;;;;;;4.88;1.30;;;;;;;3.36;67.01;98303.63;5063794;28;20048;-60
2023/03/28 09:00:15;;;;;;;6.95;2.30;;;;;;;3.38;69.99;98300.75;5060071;28;20054;-59
2023/03/28 09:02:42;;;;;;;4.68;1.60;;;;;;;3.47;66.03;98304.19;5054234;28;20043;-58
2023/03/28 09:05:16;;;;;;;8.68;1.88;;;;;;;3.45;71.28;98298.19;5055607;28;20131;-60
2023/03/28 09:08:23;;;;;;;5.13;1.58;;;;;;;3.61;68.74;98300.69;5061628;28;20044;-59
2023/03/28 09:11:20;;;;;;;6.25;1.58;;;;;;;3.79;68.48;98296.81;5059698;28;20050;-59
2023/03/28 09:13:59;;;;;;;3.63;1.48;;;;;;;4.08;66.33;98302.34;5012586;28;20139;-59
2023/03/28 09:16:38;;;;;;;5.35;1.52;;;;;;;3.79;63.43;98306.72;5058238;28;20042;-59
2023/03/28 09:19:35;;;;;;;2.40;1.30;;;;;;;3.62;61.52;98310.38;5063253;28;20060;-59
2023/03/28 09:22:54;;;;;;;3.17;1.50;;;;;;;3.69;60.38;98306.97;5081759;28;20047;-57
2023/03/28 09:25:47;;;;;;;8.20;1.52;;;;;;;4.05;65.10;98303.53;5060243;28;20048;-59
2023/03/28 09:28:36;;;;;;;3.80;1.48;;;;;;;4.02;60.60;98302.06;5061189;28;20032;-60
2023/03/28 09:31:05;;;;;;;;;;;;;;;3.88;59.56;98306.41;5076068;28;20048;-59
2023/03/28 09:33:35;;;;;;;3.00;1.50;;;;;;;3.67;61.28;98307.16;5062426;28;20466;-59
2023/03/28 09:36:13;;;;;;;8.70;1.50;;;;;;;3.63;61.83;98305.88;5061210;28;20044;-59
2023/03/28 09:38:46;;;;;;;3.67;1.27;;;;;;;3.54;62.52;98305.09;5060949;28;20139;-59
2023/03/28 09:41:18;;;;;;;3.35;1.35;;;;;;;3.47;60.84;98299.66;5062290;28;20050;-59
2023/03/28 09:43:51;;;;;;;5.43;1.50;;;;;;;3.76;59.60;98302.56;5080792;28;20127;-60
2023/03/28 09:46:43;;;;;;;3.42;1.60;;;;;;;3.45;62.20;98303.53;5079887;28;20459;-59
2023/03/28 09:49:19;;;;;;;5.30;1.65;;;;;;;3.53;61.86;98299.97;5080146;28;20133;-59
2023/03/28 09:51:54;;;;;;;5.22;1.70;;;;;;;3.72;60.23;98295.91;5061236;28;20574;-60
2023/03/28 09:54:36;;;;;;;2.90;1.00;;;;;;;3.96;58.76;98296.63;5060202;28;20044;-60
2023/03/28 09:57:04;;;;;;;4.38;1.35;;;;;;;3.89;59.20;98293.84;5060784;28;20047;-58
2023/03/28 09:59:50;;;;;;;2.15;1.08;;;;;;;4.21;56.90;98296.31;5055754;28;20048;-60
2023/03/28 10:02:29;;;;;;;4.90;1.02;;;;;;;4.21;56.12;98293.63;5055852;28;20127;-58
2023/03/28 10:04:59;;;;;;;2.78;1.08;;;;;;;4.41;56.60;98292.03;5036347;28;20040;-60
2023/03/28 10:07:32;;;;;;;3.90;1.15;;;;;;;4.64;56.84;98282.97;5065900;28;20044;-61
2023/03/28 10:10:25;;;;;;;4.47;1.20;;;;;;;4.63;52.79;98277.78;5058239;28;20119;-59
2023/03/28 10:13:02;;;;;;;4.43;1.10;;;;;;;4.54;53.94;98275.22;5059895;28;20097;-60
2023/03/28 10:15:54;;;;;;;3.80;1.00;;;;;;;4.48;53.16;98278.69;5058522;28;20043;-59
2023/03/28 10:18:41;;;;;;;5.00;1.30;;;;;;;4.65;52.89;98265.03;5074458;28;20550;-60
2023/03/28 10:21:31;;;;;;;5.70;1.10;;;;;;;4.25;54.58;98262.75;5060412;28;20042;-60
2023/03/28 10:24:20;;;;;;;5.88;1.20;;;;;;;4.48;55.11;98259.91;5059623;28;20056;-59
2023/03/28 10:27:06;;;;;;;2.90;1.03;;;;;;;4.51;56.32;98259.53;5058342;28;20040;-60
2023/03/28 10:29:35;;;;;;;3.92;1.10;;;;;;;4.55;55.79;98268.88;5059342;28;20287;-60
2023/03/28 10:32:04;;;;;;;6.82;1.48;;;;;;;4.33;56.60;98269.84;5060564;28;20048;-60
2023/03/28 10:34:41;;;;;;;3.28;1.55;;;;;;;4.58;58.67;98269.50;5080522;28;20028;-64
2023/03/28 10:37:28;;;;;;;5.30;1.40;;;;;;;4.93;58.54;98274.97;5079445;28;20036;-62
2023/03/28 10:40:16;;;;;;;2.88;1.42;;;;;;;5.02;57.14;98270.31;5081211;28;20443;-58
2023/03/28 10:43:01;;;;;;;4.00;1.58;;;;;;;4.89;56.60;98262.97;5077847;28;20566;-58
2023/03/28 10:45:49;;;;;;;5.38;1.77;;;;;;;5.18;58.16;98256.59;5059371;28;20657;-59
2023/03/28 10:48:32;;;;;;;4.22;1.65;;;;;;;5.33;55.50;98261.03;5078873;28;20037;-59
2023/03/28 10:51:09;;;;;;;4.35;1.13;;;;;;;5.47;54.16;98260.13;5063468;28;20043;-62
2023/03/28 10:53:47;;;;;;;;;;;;;;;5.67;55.46;98254.03;5078735;28;20039;-61
2023/03/28 10:56:28;;;;;;;;;;;;;;;5.82;53.46;98261.94;5050802;28;20194;-62
2023/03/28 10:59:15;;;;;;;4.22;1.00;;;;;;;5.51;50.62;98257.84;5029291;28;19935;-62
2023/03/28 11:01:56;;;;;;;2.47;1.20;;;;;;;5.76;52.05;98252.00;5062071;28;20556;-60
2023/03/28 11:04:47;;;;;;;5.07;1.50;;;;;;;5.85;54.97;98253.50;5079207;28;20120;-62
2023/03/28 11:07:31;;;;;;;4.57;1.35;;;;;;;5.80;51.97;98255.13;5056974;28;20085;-63
2023/03/28 11:10:17;;;;;;;4.18;1.58;;;;;;;5.70;51.86;98250.94;5060474;28;20066;-62
2023/03/28 11:13:04;;;;;;;;;;;;;;;6.23;50.43;98246.03;5075770;28;20052;-60
2023/03/28 11:15:43;;;;;;;;;;;;;;;5.86;52.72;98241.72;5049570;28;19971;-61
2023/03/28 11:18:51;;;;;;;;;;;;;;;5.96;51.69;98235.97;5041574;28;20494;-62
2023/03/28 11:21:42;;;;;;;;;;;;;;;6.02;52.75;98234.34;5054488;28;19920;-62
2023/03/28 11:24:24;;;;;;;;;;;;;;;6.30;53.57;98233.41;5080391;28;20722;-61
2023/03/28 11:27:11;;;;;;;;;;;;;;;6.64;51.73;98220.84;5065984;28;19927;-60
2023/03/28 11:29:57;;;;;;;;;;;;;;;6.47;51.46;98223.13;5058731;28;19999;-61
2023/03/28 11:32:35;;;;;;;;;;;;;;;6.52;51.80;98224.38;5058051;28;19923;-62
2023/03/28 11:35:16;;;;;;;;;;;;;;;6.20;51.38;98214.16;5056073;28;20462;-61
2023/03/28 11:37:58;;;;;;;;;;;;;;;6.30;50.05;98213.78;5060416;28;20568;-62
2023/03/28 11:40:33;;;;;;;;;;;;;;;6.27;50.35;98209.63;5060686;28;19924;-60
2023/03/28 11:43:06;;;;;;;;;;;;;;;6.40;49.29;98207.97;5058952;28;19924;-61
2023/03/28 11:45:39;;;;;;;;;;;;;;;6.17;49.16;98203.78;5061491;28;19945;-61
2023/03/28 11:48:34;;;;;;;;;;;;;;;6.28;49.20;98199.69;5061389;28;19985;-61
2023/03/28 11:51:22;;;;;;;;;;;;;;;6.53;51.25;98205.34;5058929;28;19927;-61
2023/03/28 11:54:12;;;;;;;;;;;;;;;6.48;49.31;98194.34;5052685;28;20489;-62
2023/03/28 11:56:42;;;;;;;;;;;;;;;6.73;46.64;98188.34;5059207;28;20034;-62
2023/03/28 11:59:15;;;;;;;;;;;;;;;6.70;48.67;98180.69;5060677;28;20450;-61
2023/03/28 12:01:49;;;;;;;;;;;;;;;6.74;48.38;98180.06;5060998;28;20330;-63
2023/03/28 12:04:20;;;;;;;;;;;;;;;6.67;48.50;98181.13;5060644;28;19928;-61
2023/03/28 12:07:02;;;;;;;;;;;;;;;6.45;48.82;98178.63;5058029;28;19979;-61
2023/03/28 12:09:43;;;;;;;;;;;;;;;6.66;47.98;98169.50;5062011;28;19939;-61
2023/03/28 12:12:12;;;;;;;;;;;;;;;6.55;49.92;98162.88;5057484;28;19967;-61
2023/03/28 12:14:48;;;;;;;;;;;;;;;6.52;49.70;98173.25;5047320;28;19985;-61
2023/03/28 12:17:58;;;;;;;;;;;;;;;6.93;46.38;98169.50;5063703;28;19931;-60
2023/03/28 12:20:28;;;;;;;;;;;;;;;6.78;46.23;98161.63;5062138;28;19926;-60
2023/03/28 12:23:00;;;;;;;;;;;;;;;7.01;46.49;98161.22;5060078;28;19927;-60